sensor_id;sensor_type;location;lat;lon;timestamp;P1;durP1;ratioP1;P2;durP2;ratioP2
77968;SDS011;67161;0.000;0.000;2023-03-01T00:01:25;3.95;;;1.80;;
77968;SDS011;67161;0.000;0.000;2023-03-01T00:03:53;3.58;;;1.60;;
77968;SDS011;67161;0.000;0.000;2023-03-01T00:06:20;3.42;;;1.63;;
77968;SDS011;67161;0.000;0.000;2023-03-01T00:08:46;4.28;;;1.88;;
77968;SDS011;67161;0.000;0.000;2023-03-01T00:11:14;3.63;;;2.10;;
77968;SDS011;67161;0.000;0.000;2023-03-01T00:13:42;3.45;;;1.83;;
77968;SDS011;67161;0.000;0.000;2023-03-01T00:16:11;3.17;;;1.80;;
77968;SDS011;67161;0.000;0.000;2023-03-01T00:18:42;3.03;;;1.80;;
77968;SDS011;67161;0.000;0.000;2023-03-01T00:21:07;3.22;;;1.90;;
77968;SDS011;67161;0.000;0.000;2023-03-01T00:23:33;3.47;;;1.90;;
77968;SDS011;67161;0.000;0.000;2023-03-01T00:26:00;3.08;;;1.92;;
77968;SDS011;67161;0.000;0.000;2023-03-01T00:28:25;2.80;;;1.75;;
77968;SDS011;67161;0.000;0.000;2023-03-01T00:30:51;3.63;;;1.90;;
77968;SDS011;67161;0.000;0.000;2023-03-01T00:33:17;3.47;;;1.80;;
77968;SDS011;67161;0.000;0.000;2023-03-01T00:35:43;5.40;;;2.17;;
77968;SDS011;67161;0.000;0.000;2023-03-01T00:38:08;6.07;;;2.22;;
77968;SDS011;67161;0.000;0.000;2023-03-01T00:40:35;3.40;;;2.00;;
77968;SDS011;67161;0.000;0.000;2023-03-01T00:43:01;3.45;;;1.83;;
77968;SDS011;67161;0.000;0.000;2023-03-01T00:45:28;4.88;;;2.10;;
77968;SDS011;67161;0.000;0.000;2023-03-01T00:47:54;3.30;;;1.98;;
77968;SDS011;67161;0.000;0.000;2023-03-01T00:50:20;4.38;;;1.92;;
77968;SDS011;67161;0.000;0.000;2023-03-01T00:52:45;4.63;;;2.30;;
77968;SDS011;67161;0.000;0.000;2023-03-01T00:55:11;4.40;;;2.08;;
77968;SDS011;67161;0.000;0.000;2023-03-01T00:57:37;3.70;;;2.03;;
77968;SDS011;67161;0.000;0.000;2023-03-01T01:00:04;3.88;;;2.10;;
77968;SDS011;67161;0.000;0.000;2023-03-01T01:02:34;4.97;;;2.10;;
77968;SDS011;67161;0.000;0.000;2023-03-01T01:05:00;3.70;;;1.95;;
77968;SDS011;67161;0.000;0.000;2023-03-01T01:07:26;4.60;;;2.17;;
77968;SDS011;67161;0.000;0.000;2023-03-01T01:09:51;4.72;;;2.17;;
77968;SDS011;67161;0.000;0.000;2023-03-01T01:12:17;4.35;;;2.00;;
77968;SDS011;67161;0.000;0.000;2023-03-01T01:14:42;3.63;;;2.10;;
77968;SDS011;67161;0.000;0.000;2023-03-01T01:17:08;4.35;;;2.25;;
77968;SDS011;67161;0.000;0.000;2023-03-01T01:19:34;4.00;;;2.30;;
77968;SDS011;67161;0.000;0.000;2023-03-01T01:21:59;3.33;;;2.30;;
77968;SDS011;67161;0.000;0.000;2023-03-01T01:24:25;3.78;;;2.10;;
77968;SDS011;67161;0.000;0.000;2023-03-01T01:26:51;4.00;;;2.10;;
77968;SDS011;67161;0.000;0.000;2023-03-01T01:29:16;4.50;;;2.30;;
77968;SDS011;67161;0.000;0.000;2023-03-01T01:31:42;3.40;;;1.90;;
77968;SDS011;67161;0.000;0.000;2023-03-01T01:34:09;4.43;;;2.10;;
77968;SDS011;67161;0.000;0.000;2023-03-01T01:36:39;4.70;;;2.58;;
77968;SDS011;67161;0.000;0.000;2023-03-01T01:39:04;4.05;;;1.92;;
77968;SDS011;67161;0.000;0.000;2023-03-01T01:41:30;4.50;;;2.40;;
77968;SDS011;67161;0.000;0.000;2023-03-01T01:44:10;3.85;;;2.25;;
77968;SDS011;67161;0.000;0.000;2023-03-01T01:57:37;4.32;;;2.22;;
77968;SDS011;67161;0.000;0.000;2023-03-01T02:00:19;4.45;;;2.20;;
77968;SDS011;67161;0.000;0.000;2023-03-01T02:02:48;4.63;;;2.30;;
77968;SDS011;67161;0.000;0.000;2023-03-01T02:07:53;4.68;;;2.50;;
77968;SDS011;67161;0.000;0.000;2023-03-01T02:10:21;4.05;;;2.13;;
77968;SDS011;67161;0.000;0.000;2023-03-01T02:12:48;4.40;;;2.30;;
77968;SDS011;67161;0.000;0.000;2023-03-01T02:15:14;3.67;;;2.03;;
77968;SDS011;67161;0.000;0.000;2023-03-01T02:17:40;3.60;;;2.05;;
77968;SDS011;67161;0.000;0.000;2023-03-01T02:22:53;4.15;;;2.60;;
77968;SDS011;67161;0.000;0.000;2023-03-01T02:30:38;4.60;;;2.53;;
77968;SDS011;67161;0.000;0.000;2023-03-01T02:33:25;5.43;;;2.50;;
77968;SDS011;67161;0.000;0.000;2023-03-01T02:35:51;3.92;;;2.40;;
77968;SDS011;67161;0.000;0.000;2023-03-01T02:38:19;3.65;;;2.10;;
77968;SDS011;67161;0.000;0.000;2023-03-01T02:40:45;4.45;;;2.47;;
77968;SDS011;67161;0.000;0.000;2023-03-01T02:43:12;3.97;;;2.28;;
77968;SDS011;67161;0.000;0.000;2023-03-01T02:45:42;4.93;;;2.47;;
77968;SDS011;67161;0.000;0.000;2023-03-01T02:48:13;5.50;;;2.75;;
77968;SDS011;67161;0.000;0.000;2023-03-01T02:53:15;3.92;;;2.50;;
77968;SDS011;67161;0.000;0.000;2023-03-01T02:55:46;3.65;;;2.17;;
77968;SDS011;67161;0.000;0.000;2023-03-01T02:58:12;4.00;;;2.35;;
77968;SDS011;67161;0.000;0.000;2023-03-01T03:00:39;3.92;;;2.50;;
77968;SDS011;67161;0.000;0.000;2023-03-01T03:03:10;4.22;;;2.80;;
77968;SDS011;67161;0.000;0.000;2023-03-01T03:05:39;4.25;;;2.40;;
77968;SDS011;67161;0.000;0.000;2023-03-01T03:08:04;4.20;;;2.42;;
77968;SDS011;67161;0.000;0.000;2023-03-01T03:10:33;5.32;;;2.50;;
77968;SDS011;67161;0.000;0.000;2023-03-01T03:13:12;3.80;;;2.20;;
77968;SDS011;67161;0.000;0.000;2023-03-01T03:15:39;4.88;;;2.42;;
77968;SDS011;67161;0.000;0.000;2023-03-01T03:18:07;3.60;;;2.30;;
77968;SDS011;67161;0.000;0.000;2023-03-01T03:20:35;5.00;;;2.80;;
77968;SDS011;67161;0.000;0.000;2023-03-01T03:23:02;4.38;;;2.40;;
77968;SDS011;67161;0.000;0.000;2023-03-01T03:25:28;3.90;;;2.45;;
77968;SDS011;67161;0.000;0.000;2023-03-01T03:27:55;3.90;;;2.30;;
77968;SDS011;67161;0.000;0.000;2023-03-01T03:30:22;4.25;;;2.70;;
77968;SDS011;67161;0.000;0.000;2023-03-01T03:32:49;4.45;;;2.65;;
77968;SDS011;67161;0.000;0.000;2023-03-01T03:35:19;4.05;;;2.70;;
77968;SDS011;67161;0.000;0.000;2023-03-01T03:37:45;5.22;;;3.10;;
77968;SDS011;67161;0.000;0.000;2023-03-01T03:40:49;4.63;;;2.67;;
77968;SDS011;67161;0.000;0.000;2023-03-01T03:43:17;4.25;;;2.60;;
77968;SDS011;67161;0.000;0.000;2023-03-01T03:45:50;4.78;;;2.70;;
77968;SDS011;67161;0.000;0.000;2023-03-01T03:48:16;4.78;;;2.78;;
77968;SDS011;67161;0.000;0.000;2023-03-01T03:50:46;5.05;;;2.60;;
77968;SDS011;67161;0.000;0.000;2023-03-01T03:53:13;3.90;;;2.40;;
77968;SDS011;67161;0.000;0.000;2023-03-01T03:55:39;3.90;;;2.58;;
77968;SDS011;67161;0.000;0.000;2023-03-01T03:58:06;7.15;;;2.70;;
77968;SDS011;67161;0.000;0.000;2023-03-01T04:00:35;4.40;;;2.95;;
77968;SDS011;67161;0.000;0.000;2023-03-01T04:03:09;4.88;;;2.78;;
77968;SDS011;67161;0.000;0.000;2023-03-01T04:05:36;4.95;;;2.70;;
77968;SDS011;67161;0.000;0.000;2023-03-01T04:08:02;4.57;;;2.55;;
77968;SDS011;67161;0.000;0.000;2023-03-01T04:10:33;4.53;;;2.78;;
77968;SDS011;67161;0.000;0.000;2023-03-01T04:13:03;4.93;;;2.90;;
77968;SDS011;67161;0.000;0.000;2023-03-01T04:15:30;4.13;;;2.63;;
77968;SDS011;67161;0.000;0.000;2023-03-01T04:17:55;4.93;;;2.80;;
77968;SDS011;67161;0.000;0.000;2023-03-01T04:20:22;4.10;;;2.60;;
77968;SDS011;67161;0.000;0.000;2023-03-01T04:22:50;4.97;;;2.70;;
77968;SDS011;67161;0.000;0.000;2023-03-01T04:25:35;4.93;;;2.60;;
77968;SDS011;67161;0.000;0.000;2023-03-01T04:28:10;4.13;;;2.58;;
77968;SDS011;67161;0.000;0.000;2023-03-01T04:30:36;4.93;;;2.67;;
77968;SDS011;67161;0.000;0.000;2023-03-01T04:33:03;3.53;;;2.30;;
77968;SDS011;67161;0.000;0.000;2023-03-01T04:35:30;4.47;;;2.70;;
77968;SDS011;67161;0.000;0.000;2023-03-01T04:37:56;3.78;;;2.40;;
77968;SDS011;67161;0.000;0.000;2023-03-01T04:40:22;4.35;;;2.50;;
77968;SDS011;67161;0.000;0.000;2023-03-01T04:42:48;4.80;;;2.65;;
77968;SDS011;67161;0.000;0.000;2023-03-01T04:45:14;3.83;;;2.63;;
77968;SDS011;67161;0.000;0.000;2023-03-01T04:47:40;4.10;;;2.33;;
77968;SDS011;67161;0.000;0.000;2023-03-01T04:50:07;4.20;;;2.33;;
77968;SDS011;67161;0.000;0.000;2023-03-01T04:52:34;4.03;;;2.40;;
77968;SDS011;67161;0.000;0.000;2023-03-01T04:55:00;4.32;;;2.40;;
77968;SDS011;67161;0.000;0.000;2023-03-01T04:57:26;4.35;;;2.13;;
77968;SDS011;67161;0.000;0.000;2023-03-01T04:59:52;3.80;;;2.25;;
77968;SDS011;67161;0.000;0.000;2023-03-01T05:02:17;3.53;;;2.08;;
77968;SDS011;67161;0.000;0.000;2023-03-01T05:04:43;3.88;;;2.15;;
77968;SDS011;67161;0.000;0.000;2023-03-01T05:07:09;3.47;;;2.17;;
77968;SDS011;67161;0.000;0.000;2023-03-01T05:09:34;3.38;;;2.20;;
77968;SDS011;67161;0.000;0.000;2023-03-01T05:12:00;3.85;;;2.40;;
77968;SDS011;67161;0.000;0.000;2023-03-01T05:14:26;3.80;;;2.20;;
77968;SDS011;67161;0.000;0.000;2023-03-01T05:16:51;3.55;;;2.13;;
77968;SDS011;67161;0.000;0.000;2023-03-01T05:19:17;4.07;;;2.30;;
77968;SDS011;67161;0.000;0.000;2023-03-01T05:21:47;4.30;;;2.30;;
77968;SDS011;67161;0.000;0.000;2023-03-01T05:24:29;2.90;;;1.80;;
77968;SDS011;67161;0.000;0.000;2023-03-01T05:26:56;3.63;;;2.05;;
77968;SDS011;67161;0.000;0.000;2023-03-01T05:29:22;3.72;;;2.00;;
77968;SDS011;67161;0.000;0.000;2023-03-01T05:31:52;3.17;;;1.90;;
77968;SDS011;67161;0.000;0.000;2023-03-01T05:34:23;2.80;;;1.90;;
77968;SDS011;67161;0.000;0.000;2023-03-01T05:36:50;3.58;;;1.95;;
77968;SDS011;67161;0.000;0.000;2023-03-01T05:39:18;4.40;;;1.90;;
77968;SDS011;67161;0.000;0.000;2023-03-01T05:41:46;3.42;;;1.90;;
77968;SDS011;67161;0.000;0.000;2023-03-01T05:44:11;3.40;;;1.90;;
77968;SDS011;67161;0.000;0.000;2023-03-01T05:46:37;3.50;;;1.80;;
77968;SDS011;67161;0.000;0.000;2023-03-01T05:49:03;3.30;;;1.85;;
77968;SDS011;67161;0.000;0.000;2023-03-01T05:51:29;3.33;;;1.77;;
77968;SDS011;67161;0.000;0.000;2023-03-01T05:53:54;3.13;;;1.80;;
77968;SDS011;67161;0.000;0.000;2023-03-01T05:56:20;2.30;;;1.63;;
77968;SDS011;67161;0.000;0.000;2023-03-01T05:58:47;3.35;;;2.08;;
77968;SDS011;67161;0.000;0.000;2023-03-01T06:01:14;3.60;;;2.03;;
77968;SDS011;67161;0.000;0.000;2023-03-01T06:03:40;2.72;;;1.63;;
77968;SDS011;67161;0.000;0.000;2023-03-01T06:06:06;2.67;;;1.80;;
77968;SDS011;67161;0.000;0.000;2023-03-01T06:08:31;4.32;;;1.85;;
77968;SDS011;67161;0.000;0.000;2023-03-01T06:10:57;2.53;;;1.75;;
77968;SDS011;67161;0.000;0.000;2023-03-01T06:13:23;2.85;;;1.50;;
77968;SDS011;67161;0.000;0.000;2023-03-01T06:15:49;2.50;;;1.70;;
77968;SDS011;67161;0.000;0.000;2023-03-01T06:18:15;2.67;;;1.70;;
77968;SDS011;67161;0.000;0.000;2023-03-01T06:20:40;3.30;;;1.90;;
77968;SDS011;67161;0.000;0.000;2023-03-01T06:23:06;2.33;;;1.63;;
77968;SDS011;67161;0.000;0.000;2023-03-01T06:25:32;3.50;;;2.20;;
77968;SDS011;67161;0.000;0.000;2023-03-01T06:27:57;2.78;;;1.80;;
77968;SDS011;67161;0.000;0.000;2023-03-01T06:30:24;2.17;;;1.67;;
77968;SDS011;67161;0.000;0.000;2023-03-01T06:32:50;3.00;;;1.80;;
77968;SDS011;67161;0.000;0.000;2023-03-01T06:35:17;3.20;;;1.90;;
77968;SDS011;67161;0.000;0.000;2023-03-01T06:37:44;2.92;;;1.92;;
77968;SDS011;67161;0.000;0.000;2023-03-01T06:40:11;3.35;;;1.88;;
77968;SDS011;67161;0.000;0.000;2023-03-01T06:42:39;2.95;;;1.85;;
77968;SDS011;67161;0.000;0.000;2023-03-01T06:45:08;2.80;;;1.80;;
77968;SDS011;67161;0.000;0.000;2023-03-01T06:47:34;2.75;;;1.90;;
77968;SDS011;67161;0.000;0.000;2023-03-01T06:50:00;2.47;;;1.70;;
77968;SDS011;67161;0.000;0.000;2023-03-01T06:52:26;3.15;;;1.83;;
77968;SDS011;67161;0.000;0.000;2023-03-01T06:54:52;2.63;;;1.70;;
77968;SDS011;67161;0.000;0.000;2023-03-01T06:57:18;3.30;;;2.10;;
77968;SDS011;67161;0.000;0.000;2023-03-01T06:59:43;2.50;;;1.65;;
77968;SDS011;67161;0.000;0.000;2023-03-01T07:02:10;3.35;;;2.00;;
77968;SDS011;67161;0.000;0.000;2023-03-01T07:04:37;2.60;;;1.77;;
77968;SDS011;67161;0.000;0.000;2023-03-01T07:07:03;2.63;;;1.63;;
77968;SDS011;67161;0.000;0.000;2023-03-01T07:09:28;2.55;;;1.67;;
77968;SDS011;67161;0.000;0.000;2023-03-01T07:11:54;3.20;;;2.00;;
77968;SDS011;67161;0.000;0.000;2023-03-01T07:14:20;3.47;;;1.88;;
77968;SDS011;67161;0.000;0.000;2023-03-01T07:16:46;3.50;;;2.00;;
77968;SDS011;67161;0.000;0.000;2023-03-01T07:19:12;4.25;;;1.80;;
77968;SDS011;67161;0.000;0.000;2023-03-01T07:21:38;2.80;;;1.92;;
77968;SDS011;67161;0.000;0.000;2023-03-01T07:24:06;3.40;;;2.10;;
77968;SDS011;67161;0.000;0.000;2023-03-01T07:26:32;3.75;;;2.00;;
77968;SDS011;67161;0.000;0.000;2023-03-01T07:28:59;3.72;;;2.17;;
77968;SDS011;67161;0.000;0.000;2023-03-01T07:31:25;3.00;;;1.92;;
77968;SDS011;67161;0.000;0.000;2023-03-01T07:33:52;3.05;;;1.85;;
77968;SDS011;67161;0.000;0.000;2023-03-01T07:36:19;3.50;;;1.90;;
77968;SDS011;67161;0.000;0.000;2023-03-01T07:38:44;3.10;;;1.90;;
77968;SDS011;67161;0.000;0.000;2023-03-01T07:41:10;3.60;;;1.98;;
77968;SDS011;67161;0.000;0.000;2023-03-01T07:43:36;3.33;;;1.90;;
77968;SDS011;67161;0.000;0.000;2023-03-01T07:46:01;3.97;;;2.20;;
77968;SDS011;67161;0.000;0.000;2023-03-01T07:48:29;3.35;;;2.17;;
77968;SDS011;67161;0.000;0.000;2023-03-01T07:50:58;3.88;;;2.17;;
77968;SDS011;67161;0.000;0.000;2023-03-01T07:53:25;3.33;;;2.33;;
77968;SDS011;67161;0.000;0.000;2023-03-01T07:56:00;5.15;;;2.30;;
77968;SDS011;67161;0.000;0.000;2023-03-01T07:58:26;3.53;;;2.17;;
77968;SDS011;67161;0.000;0.000;2023-03-01T08:00:52;3.97;;;2.10;;
77968;SDS011;67161;0.000;0.000;2023-03-01T08:03:18;3.45;;;2.17;;
77968;SDS011;67161;0.000;0.000;2023-03-01T08:05:43;5.90;;;2.22;;
77968;SDS011;67161;0.000;0.000;2023-03-01T08:08:09;3.95;;;2.40;;
77968;SDS011;67161;0.000;0.000;2023-03-01T08:10:35;4.72;;;2.60;;
77968;SDS011;67161;0.000;0.000;2023-03-01T08:13:01;4.82;;;2.47;;
77968;SDS011;67161;0.000;0.000;2023-03-01T08:15:26;4.63;;;2.50;;
77968;SDS011;67161;0.000;0.000;2023-03-01T08:17:52;4.38;;;2.78;;
77968;SDS011;67161;0.000;0.000;2023-03-01T08:20:18;4.20;;;2.70;;
77968;SDS011;67161;0.000;0.000;2023-03-01T08:22:43;3.30;;;2.45;;
77968;SDS011;67161;0.000;0.000;2023-03-01T08:25:09;3.97;;;2.83;;
77968;SDS011;67161;0.000;0.000;2023-03-01T08:27:35;4.88;;;2.80;;
77968;SDS011;67161;0.000;0.000;2023-03-01T08:30:00;4.43;;;2.83;;
77968;SDS011;67161;0.000;0.000;2023-03-01T08:32:26;4.13;;;2.88;;
77968;SDS011;67161;0.000;0.000;2023-03-01T08:34:52;5.40;;;3.00;;
77968;SDS011;67161;0.000;0.000;2023-03-01T08:37:17;3.88;;;2.60;;
77968;SDS011;67161;0.000;0.000;2023-03-01T08:39:43;5.55;;;2.50;;
77968;SDS011;67161;0.000;0.000;2023-03-01T08:42:08;4.35;;;2.65;;
77968;SDS011;67161;0.000;0.000;2023-03-01T08:44:34;4.85;;;3.05;;
77968;SDS011;67161;0.000;0.000;2023-03-01T08:47:00;5.13;;;2.75;;
77968;SDS011;67161;0.000;0.000;2023-03-01T08:49:27;6.13;;;3.17;;
77968;SDS011;67161;0.000;0.000;2023-03-01T08:51:53;5.60;;;3.22;;
77968;SDS011;67161;0.000;0.000;2023-03-01T08:54:19;7.90;;;3.22;;
77968;SDS011;67161;0.000;0.000;2023-03-01T08:56:46;4.85;;;2.88;;
77968;SDS011;67161;0.000;0.000;2023-03-01T08:59:13;4.97;;;2.72;;
77968;SDS011;67161;0.000;0.000;2023-03-01T09:01:40;5.50;;;2.80;;
77968;SDS011;67161;0.000;0.000;2023-03-01T09:04:08;4.30;;;2.63;;
77968;SDS011;67161;0.000;0.000;2023-03-01T09:06:35;5.53;;;2.90;;
77968;SDS011;67161;0.000;0.000;2023-03-01T09:09:01;4.18;;;2.90;;
77968;SDS011;67161;0.000;0.000;2023-03-01T09:11:28;5.78;;;2.72;;
77968;SDS011;67161;0.000;0.000;2023-03-01T09:13:54;4.88;;;2.92;;
77968;SDS011;67161;0.000;0.000;2023-03-01T09:16:21;4.18;;;2.83;;
77968;SDS011;67161;0.000;0.000;2023-03-01T09:18:53;5.25;;;2.65;;
77968;SDS011;67161;0.000;0.000;2023-03-01T09:21:20;4.85;;;2.70;;
77968;SDS011;67161;0.000;0.000;2023-03-01T09:23:48;7.57;;;3.33;;
77968;SDS011;67161;0.000;0.000;2023-03-01T09:26:20;4.22;;;2.88;;
77968;SDS011;67161;0.000;0.000;2023-03-01T09:28:48;6.70;;;2.63;;
77968;SDS011;67161;0.000;0.000;2023-03-01T09:31:15;5.10;;;3.00;;
77968;SDS011;67161;0.000;0.000;2023-03-01T09:33:42;5.35;;;3.00;;
77968;SDS011;67161;0.000;0.000;2023-03-01T09:36:12;5.65;;;2.75;;
77968;SDS011;67161;0.000;0.000;2023-03-01T09:38:39;5.53;;;2.97;;
77968;SDS011;67161;0.000;0.000;2023-03-01T09:41:18;5.47;;;3.00;;
77968;SDS011;67161;0.000;0.000;2023-03-01T09:46:50;5.80;;;2.80;;
77968;SDS011;67161;0.000;0.000;2023-03-01T09:49:17;4.65;;;2.72;;
77968;SDS011;67161;0.000;0.000;2023-03-01T09:54:39;5.80;;;2.70;;
77968;SDS011;67161;0.000;0.000;2023-03-01T10:02:29;5.80;;;2.67;;
77968;SDS011;67161;0.000;0.000;2023-03-01T10:10:37;4.72;;;2.30;;
77968;SDS011;67161;0.000;0.000;2023-03-01T10:13:10;5.15;;;2.40;;
77968;SDS011;67161;0.000;0.000;2023-03-01T10:15:42;9.27;;;2.97;;
77968;SDS011;67161;0.000;0.000;2023-03-01T10:18:18;6.35;;;2.75;;
77968;SDS011;67161;0.000;0.000;2023-03-01T10:20:57;10.70;;;2.72;;
77968;SDS011;67161;0.000;0.000;2023-03-01T10:23:28;10.80;;;2.70;;
77968;SDS011;67161;0.000;0.000;2023-03-01T10:26:12;8.02;;;2.70;;
77968;SDS011;67161;0.000;0.000;2023-03-01T10:29:02;6.63;;;2.70;;
77968;SDS011;67161;0.000;0.000;2023-03-01T10:34:02;9.77;;;2.75;;
77968;SDS011;67161;0.000;0.000;2023-03-01T10:36:32;10.02;;;2.90;;
77968;SDS011;67161;0.000;0.000;2023-03-01T10:38:58;5.63;;;2.70;;
77968;SDS011;67161;0.000;0.000;2023-03-01T10:41:30;12.43;;;2.60;;
77968;SDS011;67161;0.000;0.000;2023-03-01T10:43:57;7.75;;;3.05;;
77968;SDS011;67161;0.000;0.000;2023-03-01T10:51:45;14.32;;;4.70;;
77968;SDS011;67161;0.000;0.000;2023-03-01T10:56:57;18.25;;;7.22;;
77968;SDS011;67161;0.000;0.000;2023-03-01T10:59:33;24.73;;;8.25;;
77968;SDS011;67161;0.000;0.000;2023-03-01T11:07:23;22.55;;;9.18;;
77968;SDS011;67161;0.000;0.000;2023-03-01T11:09:49;26.95;;;10.02;;
77968;SDS011;67161;0.000;0.000;2023-03-01T11:12:14;22.45;;;9.18;;
77968;SDS011;67161;0.000;0.000;2023-03-01T11:14:51;31.95;;;9.43;;
77968;SDS011;67161;0.000;0.000;2023-03-01T11:17:29;29.52;;;9.60;;
77968;SDS011;67161;0.000;0.000;2023-03-01T11:22:46;29.33;;;10.18;;
77968;SDS011;67161;0.000;0.000;2023-03-01T11:25:15;30.83;;;11.07;;
77968;SDS011;67161;0.000;0.000;2023-03-01T11:27:43;41.13;;;12.18;;
77968;SDS011;67161;0.000;0.000;2023-03-01T11:30:20;39.67;;;11.07;;
77968;SDS011;67161;0.000;0.000;2023-03-01T11:33:01;33.80;;;13.32;;
77968;SDS011;67161;0.000;0.000;2023-03-01T11:35:45;43.97;;;11.73;;
77968;SDS011;67161;0.000;0.000;2023-03-01T11:38:25;31.38;;;10.73;;
77968;SDS011;67161;0.000;0.000;2023-03-01T12:05:50;28.80;;;7.75;;
77968;SDS011;67161;0.000;0.000;2023-03-01T12:08:48;19.98;;;7.30;;
77968;SDS011;67161;0.000;0.000;2023-03-01T12:11:39;21.15;;;8.07;;
77968;SDS011;67161;0.000;0.000;2023-03-01T12:14:55;33.60;;;11.43;;
77968;SDS011;67161;0.000;0.000;2023-03-01T12:28:29;46.05;;;15.35;;
77968;SDS011;67161;0.000;0.000;2023-03-01T12:36:49;75.50;;;21.92;;
77968;SDS011;67161;0.000;0.000;2023-03-01T12:39:32;49.70;;;16.85;;
77968;SDS011;67161;0.000;0.000;2023-03-01T12:50:35;67.65;;;20.40;;
77968;SDS011;67161;0.000;0.000;2023-03-01T12:53:13;54.85;;;17.58;;
77968;SDS011;67161;0.000;0.000;2023-03-01T12:55:48;51.05;;;17.48;;
77968;SDS011;67161;0.000;0.000;2023-03-01T12:58:29;64.20;;;20.05;;
77968;SDS011;67161;0.000;0.000;2023-03-01T13:01:36;63.17;;;20.70;;
77968;SDS011;67161;0.000;0.000;2023-03-01T13:17:49;66.65;;;23.65;;
77968;SDS011;67161;0.000;0.000;2023-03-01T13:20:23;74.80;;;24.17;;
77968;SDS011;67161;0.000;0.000;2023-03-01T13:23:41;65.95;;;23.80;;
77968;SDS011;67161;0.000;0.000;2023-03-01T13:30:59;66.82;;;22.58;;
77968;SDS011;67161;0.000;0.000;2023-03-01T13:33:55;84.30;;;28.23;;
77968;SDS011;67161;0.000;0.000;2023-03-01T13:42:25;70.05;;;24.10;;
77968;SDS011;67161;0.000;0.000;2023-03-01T13:46:48;67.30;;;22.75;;
77968;SDS011;67161;0.000;0.000;2023-03-01T13:49:16;59.53;;;19.90;;
77968;SDS011;67161;0.000;0.000;2023-03-01T13:51:46;51.00;;;19.02;;
77968;SDS011;67161;0.000;0.000;2023-03-01T13:54:14;56.90;;;17.05;;
77968;SDS011;67161;0.000;0.000;2023-03-01T13:56:42;52.72;;;15.95;;
77968;SDS011;67161;0.000;0.000;2023-03-01T13:59:13;46.70;;;15.45;;
77968;SDS011;67161;0.000;0.000;2023-03-01T14:01:43;50.80;;;15.20;;
77968;SDS011;67161;0.000;0.000;2023-03-01T14:06:46;55.45;;;14.45;;
77968;SDS011;67161;0.000;0.000;2023-03-01T14:11:53;38.75;;;13.35;;
77968;SDS011;67161;0.000;0.000;2023-03-01T14:14:48;57.78;;;13.02;;
77968;SDS011;67161;0.000;0.000;2023-03-01T14:17:44;43.45;;;13.23;;
77968;SDS011;67161;0.000;0.000;2023-03-01T14:22:46;42.42;;;12.55;;
77968;SDS011;67161;0.000;0.000;2023-03-01T14:25:26;37.17;;;12.07;;
77968;SDS011;67161;0.000;0.000;2023-03-01T14:30:40;33.38;;;11.32;;
77968;SDS011;67161;0.000;0.000;2023-03-01T14:36:08;37.38;;;13.75;;
77968;SDS011;67161;0.000;0.000;2023-03-01T14:38:42;40.40;;;11.53;;
77968;SDS011;67161;0.000;0.000;2023-03-01T14:41:11;31.45;;;10.57;;
77968;SDS011;67161;0.000;0.000;2023-03-01T14:43:47;35.53;;;11.70;;
77968;SDS011;67161;0.000;0.000;2023-03-01T14:46:21;49.58;;;15.02;;
77968;SDS011;67161;0.000;0.000;2023-03-01T14:48:56;45.67;;;13.27;;
77968;SDS011;67161;0.000;0.000;2023-03-01T14:51:28;51.28;;;13.10;;
77968;SDS011;67161;0.000;0.000;2023-03-01T14:53:54;48.38;;;12.63;;
77968;SDS011;67161;0.000;0.000;2023-03-01T14:56:20;46.95;;;12.95;;
77968;SDS011;67161;0.000;0.000;2023-03-01T14:58:46;47.40;;;13.23;;
77968;SDS011;67161;0.000;0.000;2023-03-01T15:01:16;46.42;;;12.60;;
77968;SDS011;67161;0.000;0.000;2023-03-01T15:03:43;49.08;;;13.07;;
77968;SDS011;67161;0.000;0.000;2023-03-01T15:06:14;50.95;;;12.07;;
77968;SDS011;67161;0.000;0.000;2023-03-01T15:08:47;46.60;;;11.80;;
77968;SDS011;67161;0.000;0.000;2023-03-01T15:11:18;46.30;;;11.20;;
77968;SDS011;67161;0.000;0.000;2023-03-01T15:13:47;38.38;;;11.07;;
77968;SDS011;67161;0.000;0.000;2023-03-01T15:16:13;44.78;;;9.98;;
77968;SDS011;67161;0.000;0.000;2023-03-01T15:18:45;37.83;;;9.95;;
77968;SDS011;67161;0.000;0.000;2023-03-01T15:21:21;46.67;;;9.98;;
77968;SDS011;67161;0.000;0.000;2023-03-01T15:23:57;42.63;;;9.18;;
77968;SDS011;67161;0.000;0.000;2023-03-01T15:26:43;44.42;;;8.77;;
77968;SDS011;67161;0.000;0.000;2023-03-01T15:29:18;38.60;;;8.23;;
77968;SDS011;67161;0.000;0.000;2023-03-01T15:32:05;50.58;;;8.13;;
77968;SDS011;67161;0.000;0.000;2023-03-01T15:40:17;22.75;;;6.45;;
77968;SDS011;67161;0.000;0.000;2023-03-01T15:42:56;23.38;;;5.88;;
77968;SDS011;67161;0.000;0.000;2023-03-01T15:45:27;24.23;;;5.88;;
77968;SDS011;67161;0.000;0.000;2023-03-01T15:47:55;20.35;;;5.90;;
77968;SDS011;67161;0.000;0.000;2023-03-01T15:50:27;20.70;;;5.75;;
77968;SDS011;67161;0.000;0.000;2023-03-01T15:52:57;26.70;;;5.82;;
77968;SDS011;67161;0.000;0.000;2023-03-01T15:55:25;21.02;;;5.75;;
77968;SDS011;67161;0.000;0.000;2023-03-01T15:58:04;19.08;;;5.28;;
77968;SDS011;67161;0.000;0.000;2023-03-01T16:00:37;20.17;;;5.30;;
77968;SDS011;67161;0.000;0.000;2023-03-01T16:03:04;21.48;;;5.10;;
77968;SDS011;67161;0.000;0.000;2023-03-01T16:05:31;16.08;;;4.85;;
77968;SDS011;67161;0.000;0.000;2023-03-01T16:07:59;17.35;;;5.35;;
77968;SDS011;67161;0.000;0.000;2023-03-01T16:10:25;18.30;;;4.95;;
77968;SDS011;67161;0.000;0.000;2023-03-01T16:12:51;19.77;;;5.28;;
77968;SDS011;67161;0.000;0.000;2023-03-01T16:15:22;17.70;;;4.70;;
77968;SDS011;67161;0.000;0.000;2023-03-01T16:17:49;16.45;;;4.70;;
77968;SDS011;67161;0.000;0.000;2023-03-01T16:20:17;13.38;;;4.45;;
77968;SDS011;67161;0.000;0.000;2023-03-01T16:22:43;16.25;;;4.70;;
77968;SDS011;67161;0.000;0.000;2023-03-01T16:25:10;15.23;;;4.32;;
77968;SDS011;67161;0.000;0.000;2023-03-01T16:27:37;11.07;;;4.00;;
77968;SDS011;67161;0.000;0.000;2023-03-01T16:30:04;13.95;;;4.10;;
77968;SDS011;67161;0.000;0.000;2023-03-01T16:32:30;11.77;;;4.40;;
77968;SDS011;67161;0.000;0.000;2023-03-01T16:34:56;11.77;;;3.80;;
77968;SDS011;67161;0.000;0.000;2023-03-01T16:37:22;11.00;;;3.88;;
77968;SDS011;67161;0.000;0.000;2023-03-01T16:39:48;14.23;;;4.32;;
77968;SDS011;67161;0.000;0.000;2023-03-01T16:42:17;14.63;;;4.22;;
77968;SDS011;67161;0.000;0.000;2023-03-01T16:44:42;12.10;;;3.50;;
77968;SDS011;67161;0.000;0.000;2023-03-01T16:47:08;11.48;;;3.90;;
77968;SDS011;67161;0.000;0.000;2023-03-01T16:49:34;12.35;;;3.53;;
77968;SDS011;67161;0.000;0.000;2023-03-01T16:51:59;7.82;;;3.28;;
77968;SDS011;67161;0.000;0.000;2023-03-01T16:54:25;11.70;;;3.63;;
77968;SDS011;67161;0.000;0.000;2023-03-01T16:56:50;12.43;;;3.60;;
77968;SDS011;67161;0.000;0.000;2023-03-01T16:59:16;7.50;;;3.15;;
77968;SDS011;67161;0.000;0.000;2023-03-01T17:01:44;10.85;;;3.10;;
77968;SDS011;67161;0.000;0.000;2023-03-01T17:04:10;12.32;;;3.03;;
77968;SDS011;67161;0.000;0.000;2023-03-01T17:06:37;8.38;;;3.00;;
77968;SDS011;67161;0.000;0.000;2023-03-01T17:09:03;8.55;;;3.22;;
77968;SDS011;67161;0.000;0.000;2023-03-01T17:11:28;6.72;;;2.70;;
77968;SDS011;67161;0.000;0.000;2023-03-01T17:13:54;8.60;;;3.15;;
77968;SDS011;67161;0.000;0.000;2023-03-01T17:16:20;7.78;;;3.15;;
77968;SDS011;67161;0.000;0.000;2023-03-01T17:18:46;5.50;;;2.72;;
77968;SDS011;67161;0.000;0.000;2023-03-01T17:21:13;9.70;;;3.05;;
77968;SDS011;67161;0.000;0.000;2023-03-01T17:23:40;9.52;;;3.25;;
77968;SDS011;67161;0.000;0.000;2023-03-01T17:26:07;11.73;;;3.20;;
77968;SDS011;67161;0.000;0.000;2023-03-01T17:28:33;7.00;;;2.97;;
77968;SDS011;67161;0.000;0.000;2023-03-01T17:31:01;12.68;;;2.97;;
77968;SDS011;67161;0.000;0.000;2023-03-01T17:33:29;7.10;;;2.60;;
77968;SDS011;67161;0.000;0.000;2023-03-01T17:35:57;6.07;;;2.80;;
77968;SDS011;67161;0.000;0.000;2023-03-01T17:38:23;7.90;;;2.92;;
77968;SDS011;67161;0.000;0.000;2023-03-01T17:40:50;7.53;;;3.00;;
77968;SDS011;67161;0.000;0.000;2023-03-01T17:43:16;6.88;;;2.60;;